High Point, NC

6:54 AM EDT on October 31, 2014 (GMT -0400)
Carol Bay | Change Station
CLOSE
Current Station
Personal Weather Station
Location: High Point, NC
Elevation: 853 ft
Nearby Weather Stations

Elev 853 ft 36.02 °N, 79.98 °W | Updated 1 second ago

Partly Cloudy
Partly Cloudy
42.0 °F
Feels Like 42 °F
N
0.0
Wind Variable Wind from NNE
Gusts 9.0 mph

Today
High -- | Low -- °F
--% Chance of Precip.
Yesterday
High -- | Low -- °F
Precip. -- in
7:41 AM 6:25 PM
First Quarter, 54% visible
Pressure 29.96 in
Visibility 10.0 miles
Clouds Mostly Cloudy 2600 ft
Windchill 42 °F
Dew Point 39 °F
Humidity 90%
Rainfall 0.00 in
Snow Depth Not available.
UV 0 out of 12
Pollen 1.30 out of 12
Air Quality Not available.
Flu Activity Not available.
SPECI KGSO 311037Z 03006KT 10SM BKN026 05/02 A2996 RMK AO2

More Conditions Fewer Conditions

Pressure 29.96 in
Visibility 10.0 miles
Clouds Mostly Cloudy 2600 ft
Windchill 42 °F
Dew Point 39 °F
Humidity 90%
Rainfall 0.00 in
Snow Depth Not available.
UV 0 out of 12
Pollen 1.30 out of 12
Air Quality Not available.
Flu Activity Not available.
SPECI KGSO 311037Z 03006KT 10SM BKN026 05/02 A2996 RMK AO2

More Conditions Fewer Conditions

10-Day Weather Forecast

Almanac

Astronomy

Oct. 31, 2014 Rise Set
Actual Time
Civil Twilight
Nautical Twilight
Astronomical Twilight
Moon
Length of Visible Light
Length of Day
Tomorrow will be .
, % of the Moon is Illuminated

Today's Extremes

State Highs State Lows

Community

WunderPhotos

Upload Photos

1,766,580 photos uploaded!

WunderBlogs® & News

Nearby

Air Quality

  Air Quality AQ Index Pollutant
Not available.

Snow Depth

Station Depth Elevation

Earthquake Activity

City Distance Mag. Time & Date
Minimum magnitude displayed is 2.5.

Coastal Water Temperatures

Place Temperature

Nearby Weather Stations